• Join FlightAware (Why Join?)
  • Login
  • US Flag 
07:59AM EDT


 

Airport Tracker/Info


-or-


 

Live Flight TrackerFlight Track Log ✈ AXM5240 ✈ 10-Feb-2014 ✈ WMKK / KUL - WBGB / BTU

Flight Track Log - Related Links

Times and Time Zones

All times are in EST time to prevent confusion due to time zone crossing. See the AXM5240 flight status page for this flight to view local times or setup timezone preferences in your user account.

Time Position Orientation Groundspeed Altitude Reporting Facility
EST Latitude Longitude Course Direction KTS MPH feet Rate Location/Type
01:43AM 2.8814 101.7547 65° Northeast 277 319 5,300  Level FlightAware ADS-B
01:43AM 2.8930 101.7793 65° Northeast 283 326 6,100 2,280 Climbing FlightAware ADS-B
01:43AM 2.9038 101.8020 65° Northeast 291 335 6,800 2,100 Climbing FlightAware ADS-B
01:44AM 2.9158 101.8273 65° Northeast 299 344 7,500 2,580 Climbing FlightAware ADS-B
01:44AM 2.9276 101.8524 65° Northeast 298 343 8,600 2,880 Climbing FlightAware ADS-B
01:44AM 2.9386 101.8759 65° Northeast 295 339 9,500 2,100 Climbing FlightAware ADS-B
01:45AM 2.9634 101.9283 65° Northeast 315 362 10,700 1,320 Climbing FlightAware ADS-B
01:46AM 2.9897 101.9839 65° Northeast 355 409 11,300 1,620 Climbing FlightAware ADS-B
01:46AM 3.0186 102.0452 65° Northeast 362 417 12,900 2,580 Climbing FlightAware ADS-B
01:48AM 3.1367 102.2958 89° East 380 437 17,900 1,920 Climbing FlightAware ADS-B (WMSA / SZB)
01:49AM 3.0218 102.2634 89° East  Level Estimated
01:49AM 3.1391 102.3009 65° Northeast 382 440 18,000  Level FlightAware ADS-B (WMSA / SZB)
01:50AM 3.1715 102.3662 64° Northeast 387 445 19,100 1,560 Climbing FlightAware ADS-B (WMSA / SZB)
01:52AM 3.1716 102.5533 90° East  Level Estimated
01:53AM 3.1716 102.6517 90° East  Level Estimated
01:54AM 3.1717 102.7502 90° East  Level Estimated
01:55AM 3.1717 102.8487 90° East  Level Estimated
01:56AM 3.1717 102.9471 90° East  Level Estimated
01:57AM 3.1717 103.0456 90° East  Level Estimated
01:58AM 3.1717 103.1440 90° East  Level Estimated
01:59AM 3.1717 103.2425 90° East  Level Estimated
02:00AM 3.1717 103.3410 90° East  Level Estimated
02:01AM 3.1716 103.4394 90° East  Level Estimated
02:02AM 3.1716 103.5379 90° East  Level Estimated
02:03AM 3.1716 103.6363 90° East  Level Estimated
02:04AM 3.1715 103.7348 90° East  Level Estimated
02:05AM 3.1714 103.8333 90° East  Level Estimated
02:06AM 3.1714 103.9317 90° East  Level Estimated
02:07AM 3.1713 104.0302 90° East  Level Estimated
02:08AM 3.1712 104.1286 90° East  Level Estimated
02:09AM 3.1711 104.2271 90° East  Level Estimated
02:10AM 3.1709 104.3256 90° East  Level Estimated
02:11AM 3.1708 104.4240 90° East  Level Estimated
02:12AM 3.1707 104.5225 90° East  Level Estimated
02:13AM 3.1705 104.6209 90° East  Level Estimated
02:14AM 3.1704 104.7194 90° East  Level Estimated
02:15AM 3.1702 104.8179 90° East  Level Estimated
02:16AM 3.1700 104.9163 90° East  Level Estimated
02:17AM 3.1699 105.0148 90° East  Level Estimated
02:18AM 3.1697 105.1132 90° East  Level Estimated
02:19AM 3.1695 105.2117 90° East  Level Estimated
02:20AM 3.1693 105.3102 90° East  Level Estimated
02:21AM 3.1690 105.4086 90° East  Level Estimated
02:22AM 3.1688 105.5071 90° East  Level Estimated
02:23AM 3.1686 105.6055 90° East  Level Estimated
02:24AM 3.1683 105.7040 90° East  Level Estimated
02:25AM 3.1681 105.8025 90° East  Level Estimated
02:26AM 3.1678 105.9009 90° East  Level Estimated
02:27AM 3.1675 105.9994 90° East  Level Estimated
02:28AM 3.1672 106.0978 90° East  Level Estimated
02:29AM 3.1669 106.1963 90° East  Level Estimated
02:30AM 3.1666 106.2948 90° East  Level Estimated
02:31AM 3.1663 106.3932 90° East  Level Estimated
02:32AM 3.1660 106.4917 90° East  Level Estimated
02:33AM 3.1657 106.5901 90° East  Level Estimated
02:34AM 3.1653 106.6886 90° East  Level Estimated
02:35AM 3.1650 106.7871 90° East  Level Estimated
02:36AM 3.1646 106.8855 90° East  Level Estimated
02:37AM 3.1642 106.9840 90° East  Level Estimated
02:38AM 3.1639 107.0824 90° East  Level Estimated
02:39AM 3.1635 107.1809 90° East  Level Estimated
02:40AM 3.1631 107.2794 90° East  Level Estimated
02:41AM 3.1627 107.3778 90° East  Level Estimated
02:42AM 3.1622 107.4763 90° East  Level Estimated
02:43AM 3.1618 107.5747 90° East  Level Estimated
02:44AM 3.1614 107.6732 90° East  Level Estimated
02:45AM 3.1609 107.7717 90° East  Level Estimated
02:46AM 3.1605 107.8701 90° East  Level Estimated
02:47AM 3.1600 107.9686 90° East  Level Estimated
02:48AM 3.1596 108.0670 90° East  Level Estimated
02:49AM 3.1591 108.1655 90° East  Level Estimated
02:50AM 3.1586 108.2640 90° East  Level Estimated
02:51AM 3.1581 108.3624 90° East  Level Estimated
02:52AM 3.1576 108.4609 90° East  Level Estimated
02:53AM 3.1571 108.5593 90° East  Level Estimated
02:54AM 3.1565 108.6578 90° East  Level Estimated
02:55AM 3.1560 108.7563 90° East  Level Estimated
02:56AM 3.1555 108.8547 90° East  Level Estimated
02:57AM 3.1549 108.9532 90° East  Level Estimated
02:58AM 3.1543 109.0516 90° East  Level Estimated
02:59AM 3.1538 109.1501 90° East  Level Estimated
03:00AM 3.1532 109.2486 90° East  Level Estimated
03:01AM 3.1526 109.3470 90° East  Level Estimated
03:02AM 3.1520 109.4455 90° East  Level Estimated
03:03AM 3.1514 109.5439 90° East  Level Estimated
03:04AM 3.1508 109.6424 90° East  Level Estimated
03:05AM 3.1501 109.7409 90° East  Level Estimated
03:06AM 3.1495 109.8393 90° East  Level Estimated
03:07AM 3.1488 109.9378 90° East  Level Estimated
03:08AM 3.1482 110.0362 90° East  Level Estimated
03:09AM 3.1475 110.1347 90° East  Level Estimated
03:10AM 3.1468 110.2332 90° East  Level Estimated
03:11AM 3.1461 110.3316 90° East  Level Estimated
03:12AM 3.1455 110.4301 90° East  Level Estimated
03:13AM 3.1448 110.5285 90° East  Level Estimated
03:14AM 3.1440 110.6270 90° East  Level Estimated
03:15AM 3.1433 110.7255 90° East  Level Estimated
03:16AM 3.1426 110.8239 90° East  Level Estimated
03:17AM 3.1418 110.9224 90° East  Level Estimated
03:18AM 3.1411 111.0208 90° East  Level Estimated
03:19AM 3.1403 111.1193 90° East  Level Estimated
03:20AM 3.1396 111.2178 90° East  Level Estimated
03:21AM 3.1388 111.3162 90° East  Level Estimated
03:22AM 3.1380 111.4147 90° East  Level Estimated
03:23AM 3.1372 111.5131 90° East  Level Estimated
03:24AM 3.1364 111.6116 90° East  Level Estimated
03:25AM 3.1356 111.7101 90° East  Level Estimated
03:26AM 3.1348 111.8085 90° East  Level Estimated
03:27AM 3.1339 111.9070 90° East  Level Estimated
03:28AM 3.1331 112.0054 90° East  Level Estimated
03:29AM 3.1322 112.1039 90° East  Level Estimated
03:30AM 3.1314 112.2024 91° East  Level Estimated
03:31AM 3.1305 112.3008 91° East  Level Estimated
03:32AM 3.1296 112.3993 91° East  Level Estimated
03:33AM 3.1287 112.4977 91° East  Level Estimated
03:34AM 3.1278 112.5962 91° East  Level Estimated
03:35AM 3.1269 112.6946 91° East  Level Estimated
03:36AM 3.1260 112.7931 91° East  Level Estimated
03:37AM 3.1251 112.8915 91° East  Level Estimated
03:38AM 3.1241 112.9900 91° East  Level Estimated
03:39AM 3.1239 113.0205 91° East  Level Estimated
03:40AM 3.1239 113.0205 90° East  Level Estimated
03:41AM 3.1239 113.0205 90° East  Level Estimated
03:42AM 3.1239 113.0205 90° East  Level Estimated
03:43AM 3.1239 113.0205 90° East  Level Estimated
03:44AM 3.1239 113.0205 90° East  Level Estimated
03:45AM 3.1239 113.0205 90° East  Level Estimated
03:46AM 3.1239 113.0205 90° East  Level Estimated
03:47AM 3.1239 113.0205 90° East  Level Estimated
03:48AM 3.1239 113.0205 90° East  Level Estimated